PWSweather.com
Personal Weather Stations
Station Observations
KNYSALTS1
Hessville, Fort Plain, NY

HessvilleFort Plain, NY

Lat: 42.86430704, Lon: -74.72141266

Elevation: 1041

Station Type: Davis Vantage Pro2 Plus

http://indiantrailweather.com

Latest ConditionsUpdated 8:40:10 PM EST Wednesday, Jan 16, 2019
Currently Today's Max Today's Min Today's Average
Temperature 23.0°F-5.0°C 33.4°F0.8°C 23.0°F-5.0°C 28.0°F-2.2°C
Dew Point 16.6°F-8.6°C 28.2°F-2.1°C 16.4°F-8.7°C 23.5°F-4.7°C
Winds 10.4 mph W16.7 kmh W 29.9 mph -48.1 kmh - - 11.3 mph 18.2 kmh
Wind Gusts 13.8 mph22.2 kmh 36.8 mph59.2 kmh - -
Humidity 76% 94% 68% 83%
Pressure 30.18 in1022.0 mb 30.18 in1022.0 mb 29.93 in1013.5 mb -
Hour Temp Dew Point Humidity Winds Wind Gusts Pressure Precip Precip Rate Daily Precip Total
08:40 PM 23.0°F-5.0°C 16.6°F-8.6°C 76% 10.4 mph W16.7 kmh W 13.8 mph22.2 kmh 30.18 in1022.0 mb - 0.00 in0.0 mm 0.00 in0.0 mm
08:30 PM 23.1°F-4.9°C 16.7°F-8.5°C 76% 11.5 mph W18.5 kmh W 13.8 mph22.2 kmh 30.17 in1021.7 mb - 0.00 in0.0 mm 0.00 in0.0 mm
08:20 PM 23.1°F-4.9°C 16.7°F-8.5°C 76% 18.4 mph W29.6 kmh W 18.4 mph29.6 kmh 30.16 in1021.3 mb - 0.00 in0.0 mm 0.00 in0.0 mm
08:10 PM 23.1°F-4.9°C 16.6°F-8.6°C 76% 11.5 mph WSW18.5 kmh WSW 15.0 mph24.1 kmh 30.16 in1021.3 mb - 0.00 in0.0 mm 0.00 in0.0 mm
08:00 PM 23.2°F-4.9°C 16.4°F-8.7°C 75% 20.7 mph WSW33.3 kmh WSW 27.6 mph44.4 kmh 30.16 in1021.3 mb - 0.00 in0.0 mm 0.00 in0.0 mm
07:50 PM 23.4°F-4.8°C 16.6°F-8.6°C 75% 13.8 mph W22.2 kmh W 20.7 mph33.3 kmh 30.16 in1021.3 mb - 0.00 in0.0 mm 0.00 in0.0 mm
07:40 PM 23.5°F-4.7°C 16.7°F-8.5°C 75% 16.1 mph WSW25.9 kmh WSW 20.7 mph33.3 kmh 30.15 in1021.0 mb - 0.00 in0.0 mm 0.00 in0.0 mm
07:30 PM 23.9°F-4.5°C 16.8°F-8.4°C 74% Calm Calm 17.3 mph27.8 kmh 30.14 in1020.7 mb - 0.00 in0.0 mm 0.00 in0.0 mm
07:20 PM 24.3°F-4.3°C 16.9°F-8.4°C 73% 15.0 mph W24.1 kmh W 16.1 mph25.9 kmh 30.14 in1020.7 mb - 0.00 in0.0 mm 0.00 in0.0 mm
07:10 PM 24.6°F-4.1°C 16.9°F-8.4°C 72% 24.2 mph W38.9 kmh W 26.5 mph42.6 kmh 30.14 in1020.7 mb - 0.00 in0.0 mm 0.00 in0.0 mm
07:00 PM 24.8°F-4.0°C 17.1°F-8.3°C 72% 24.2 mph W38.9 kmh W 31.1 mph50.1 kmh 30.13 in1020.3 mb - 0.00 in0.0 mm 0.00 in0.0 mm
06:50 PM 25.0°F-3.9°C 16.6°F-8.6°C 70% 19.6 mph W31.5 kmh W 20.7 mph33.3 kmh 30.12 in1020.0 mb - 0.00 in0.0 mm 0.00 in0.0 mm
06:40 PM 25.6°F-3.6°C 16.5°F-8.6°C 68% 24.2 mph W38.9 kmh W 28.8 mph46.3 kmh 30.11 in1019.6 mb - 0.00 in0.0 mm 0.00 in0.0 mm
06:30 PM 26.0°F-3.3°C 17.2°F-8.2°C 69% 27.6 mph WNW44.4 kmh WNW 36.8 mph59.2 kmh 30.11 in1019.6 mb - 0.00 in0.0 mm 0.00 in0.0 mm
06:20 PM 26.1°F-3.3°C 18.3°F-7.6°C 72% 23.0 mph WNW37.0 kmh WNW 23.0 mph37.0 kmh 30.10 in1019.3 mb - 0.00 in0.0 mm 0.00 in0.0 mm
06:10 PM 26.2°F-3.2°C 19.4°F-7.0°C 75% 6.9 mph WNW11.1 kmh WNW 21.9 mph35.2 kmh 30.09 in1019.0 mb - 0.00 in0.0 mm 0.00 in0.0 mm
06:00 PM 26.6°F-3.0°C 19.7°F-6.8°C 75% 25.3 mph W40.7 kmh W 31.1 mph50.1 kmh 30.08 in1018.6 mb - 0.00 in0.0 mm 0.00 in0.0 mm
05:50 PM 27.0°F-2.8°C 19.5°F-6.9°C 73% 21.9 mph W35.2 kmh W 20.7 mph33.3 kmh 30.07 in1018.3 mb - 0.00 in0.0 mm 0.00 in0.0 mm
05:40 PM 27.4°F-2.6°C 19.9°F-6.7°C 73% 20.7 mph W33.3 kmh W 24.2 mph38.9 kmh 30.06 in1017.9 mb - 0.00 in0.0 mm 0.00 in0.0 mm
05:30 PM 27.7°F-2.4°C 21.1°F-6.1°C 76% 11.5 mph W18.5 kmh W 19.6 mph31.5 kmh 30.06 in1017.9 mb - 0.00 in0.0 mm 0.00 in0.0 mm
05:20 PM 28.2°F-2.1°C 21.3°F-5.9°C 75% 18.4 mph WNW29.6 kmh WNW 24.2 mph38.9 kmh 30.05 in1017.6 mb - 0.00 in0.0 mm 0.00 in0.0 mm
05:10 PM 28.7°F-1.8°C 22.1°F-5.5°C 76% 18.4 mph NW29.6 kmh NW 26.5 mph42.6 kmh 30.05 in1017.6 mb - 0.00 in0.0 mm 0.00 in0.0 mm
05:00 PM 29.0°F-1.7°C 22.0°F-5.6°C 75% 20.7 mph W33.3 kmh W 24.2 mph38.9 kmh 30.04 in1017.3 mb - 0.00 in0.0 mm 0.00 in0.0 mm
04:50 PM 29.2°F-1.6°C 22.9°F-5.1°C 77% 16.1 mph W25.9 kmh W 23.0 mph37.0 kmh 30.03 in1016.9 mb - 0.00 in0.0 mm 0.00 in0.0 mm
04:40 PM 29.4°F-1.4°C 23.4°F-4.8°C 78% 19.6 mph WNW31.5 kmh WNW 34.5 mph55.5 kmh 30.02 in1016.6 mb - 0.00 in0.0 mm 0.00 in0.0 mm
04:30 PM 29.5°F-1.4°C 24.1°F-4.4°C 80% 12.7 mph WNW20.4 kmh WNW 18.4 mph29.6 kmh 30.02 in1016.6 mb - 0.00 in0.0 mm 0.00 in0.0 mm
04:20 PM 29.8°F-1.2°C 24.4°F-4.2°C 80% 20.7 mph NW33.3 kmh NW 26.5 mph42.6 kmh 30.01 in1016.3 mb - 0.00 in0.0 mm 0.00 in0.0 mm
04:10 PM 30.1°F-1.1°C 25.0°F-3.9°C 81% 24.2 mph WNW38.9 kmh WNW 29.9 mph48.1 kmh 30.00 in1015.9 mb - 0.00 in0.0 mm 0.00 in0.0 mm
04:00 PM 30.3°F-0.9°C 25.8°F-3.4°C 83% 16.1 mph WNW25.9 kmh WNW 20.7 mph33.3 kmh 30.00 in1015.9 mb - 0.00 in0.0 mm 0.00 in0.0 mm
03:50 PM 30.5°F-0.8°C 26.6°F-3.0°C 85% 21.9 mph WNW35.2 kmh WNW 31.1 mph50.1 kmh 29.99 in1015.6 mb - 0.00 in0.0 mm 0.00 in0.0 mm
03:40 PM 30.6°F-0.8°C 26.7°F-2.9°C 85% 29.9 mph WNW48.1 kmh WNW 29.9 mph48.1 kmh 29.98 in1015.2 mb - 0.00 in0.0 mm 0.00 in0.0 mm
03:30 PM 30.9°F-0.6°C 26.9°F-2.8°C 85% 24.2 mph WNW38.9 kmh WNW 26.5 mph42.6 kmh 29.98 in1015.2 mb - 0.00 in0.0 mm 0.00 in0.0 mm
03:20 PM 31.2°F-0.4°C 27.5°F-2.5°C 86% 24.2 mph WNW38.9 kmh WNW 26.5 mph42.6 kmh 29.97 in1014.9 mb - 0.00 in0.0 mm 0.00 in0.0 mm
03:10 PM 31.9°F-0.1°C 27.7°F-2.4°C 84% 20.7 mph WNW33.3 kmh WNW 32.2 mph51.8 kmh 29.97 in1014.9 mb - 0.00 in0.0 mm 0.00 in0.0 mm
03:00 PM 33.1°F0.6°C 27.0°F-2.8°C 78% 12.7 mph W20.4 kmh W 27.6 mph44.4 kmh 29.95 in1014.2 mb - 0.00 in0.0 mm 0.00 in0.0 mm
02:50 PM 33.2°F0.7°C 26.5°F-3.1°C 76% 27.6 mph WSW44.4 kmh WSW 31.1 mph50.1 kmh 29.94 in1013.9 mb - 0.00 in0.0 mm 0.00 in0.0 mm
02:40 PM 33.3°F0.7°C 26.9°F-2.8°C 77% 23.0 mph WSW37.0 kmh WSW 29.9 mph48.1 kmh 29.94 in1013.9 mb - 0.00 in0.0 mm 0.00 in0.0 mm
02:30 PM 33.3°F0.7°C 26.5°F-3.1°C 76% 27.6 mph WSW44.4 kmh WSW 32.2 mph51.8 kmh 29.93 in1013.5 mb - 0.00 in0.0 mm 0.00 in0.0 mm
02:20 PM 33.2°F0.7°C 26.8°F-2.9°C 77% 20.7 mph WSW33.3 kmh WSW 25.3 mph40.7 kmh 29.93 in1013.5 mb - 0.00 in0.0 mm 0.00 in0.0 mm
02:10 PM 33.1°F0.6°C 27.0°F-2.8°C 78% 21.9 mph WSW35.2 kmh WSW 20.7 mph33.3 kmh 29.93 in1013.5 mb - 0.00 in0.0 mm 0.00 in0.0 mm
02:00 PM 33.4°F0.8°C 27.2°F-2.7°C 78% 17.3 mph WSW27.8 kmh WSW 20.7 mph33.3 kmh 29.93 in1013.5 mb - 0.00 in0.0 mm 0.00 in0.0 mm
01:50 PM 33.1°F0.6°C 27.9°F-2.3°C 81% 16.1 mph WSW25.9 kmh WSW 17.3 mph27.8 kmh 29.93 in1013.5 mb - 0.00 in0.0 mm 0.00 in0.0 mm
01:40 PM 32.8°F0.4°C 28.2°F-2.1°C 83% 3.5 mph WSW5.6 kmh WSW 16.1 mph25.9 kmh 29.93 in1013.5 mb - 0.00 in0.0 mm 0.00 in0.0 mm
01:30 PM 32.4°F0.2°C 27.8°F-2.3°C 83% 17.3 mph WSW27.8 kmh WSW 17.3 mph27.8 kmh 29.93 in1013.5 mb - 0.00 in0.0 mm 0.00 in0.0 mm
01:20 PM 32.2°F0.1°C 28.2°F-2.1°C 85% 4.6 mph WSW7.4 kmh WSW -- 29.93 in1013.5 mb - 0.00 in0.0 mm 0.00 in0.0 mm
01:10 PM 32.0°F0.0°C 27.7°F-2.4°C 84% 20.7 mph WSW33.3 kmh WSW 20.7 mph33.3 kmh 29.93 in1013.5 mb - 0.00 in0.0 mm 0.00 in0.0 mm
01:00 PM 32.0°F0.0°C 27.7°F-2.4°C 84% 18.4 mph WSW29.6 kmh WSW 24.2 mph38.9 kmh 29.93 in1013.5 mb - 0.00 in0.0 mm 0.00 in0.0 mm
12:50 PM 32.3°F0.2°C 27.7°F-2.4°C 83% 18.4 mph WSW29.6 kmh WSW 20.7 mph33.3 kmh 29.93 in1013.5 mb - 0.00 in0.0 mm 0.00 in0.0 mm
12:40 PM 32.0°F0.0°C 27.4°F-2.6°C 83% 17.3 mph WSW27.8 kmh WSW 17.3 mph27.8 kmh 29.93 in1013.5 mb - 0.00 in0.0 mm 0.00 in0.0 mm
12:30 PM 31.7°F-0.2°C 27.1°F-2.7°C 83% 17.3 mph WSW27.8 kmh WSW 19.6 mph31.5 kmh 29.93 in1013.5 mb - 0.00 in0.0 mm 0.00 in0.0 mm
12:20 PM 31.6°F-0.2°C 27.0°F-2.8°C 83% 17.3 mph WSW27.8 kmh WSW 19.6 mph31.5 kmh 29.93 in1013.5 mb - 0.00 in0.0 mm 0.00 in0.0 mm
12:10 PM 31.6°F-0.2°C 27.0°F-2.8°C 83% 20.7 mph WSW33.3 kmh WSW 20.7 mph33.3 kmh 29.93 in1013.5 mb - 0.00 in0.0 mm 0.00 in0.0 mm
12:00 PM 31.5°F-0.3°C 26.9°F-2.8°C 83% 18.4 mph WSW29.6 kmh WSW 21.9 mph35.2 kmh 29.94 in1013.9 mb - 0.00 in0.0 mm 0.00 in0.0 mm
11:50 AM 31.5°F-0.3°C 27.2°F-2.7°C 84% 18.4 mph WSW29.6 kmh WSW 21.9 mph35.2 kmh 29.94 in1013.9 mb - 0.00 in0.0 mm 0.00 in0.0 mm
11:40 AM 31.4°F-0.3°C 26.8°F-2.9°C 83% 27.6 mph WSW44.4 kmh WSW 32.2 mph51.8 kmh 29.94 in1013.9 mb - 0.00 in0.0 mm 0.00 in0.0 mm
11:30 AM 31.6°F-0.2°C 27.3°F-2.6°C 84% 24.2 mph WSW38.9 kmh WSW 24.2 mph38.9 kmh 29.94 in1013.9 mb - 0.00 in0.0 mm 0.00 in0.0 mm
11:20 AM 31.1°F-0.5°C 27.1°F-2.7°C 85% 20.7 mph WSW33.3 kmh WSW 24.2 mph38.9 kmh 29.95 in1014.2 mb - 0.00 in0.0 mm 0.00 in0.0 mm
11:10 AM 30.9°F-0.6°C 26.9°F-2.8°C 85% 19.6 mph WSW31.5 kmh WSW 20.7 mph33.3 kmh 29.95 in1014.2 mb - 0.00 in0.0 mm 0.00 in0.0 mm
11:00 AM 30.4°F-0.9°C 27.0°F-2.8°C 87% 16.1 mph WSW25.9 kmh WSW 16.1 mph25.9 kmh 29.95 in1014.2 mb - 0.00 in0.0 mm 0.00 in0.0 mm
10:50 AM 30.2°F-1.0°C 26.8°F-2.9°C 87% 21.9 mph WSW35.2 kmh WSW 27.6 mph44.4 kmh 29.95 in1014.2 mb - 0.00 in0.0 mm 0.00 in0.0 mm
10:40 AM 29.9°F-1.2°C 26.5°F-3.1°C 87% 19.6 mph WSW31.5 kmh WSW 23.0 mph37.0 kmh 29.95 in1014.2 mb - 0.00 in0.0 mm 0.00 in0.0 mm
10:30 AM 29.6°F-1.3°C 26.5°F-3.1°C 88% 23.0 mph SW37.0 kmh SW 29.9 mph48.1 kmh 29.96 in1014.6 mb - 0.00 in0.0 mm 0.00 in0.0 mm
10:20 AM 29.1°F-1.6°C 26.0°F-3.3°C 88% 18.4 mph WSW29.6 kmh WSW 23.0 mph37.0 kmh 29.97 in1014.9 mb - 0.00 in0.0 mm 0.00 in0.0 mm
10:10 AM 28.9°F-1.7°C 25.8°F-3.4°C 88% 13.8 mph WSW22.2 kmh WSW 23.0 mph37.0 kmh 29.97 in1014.9 mb - 0.00 in0.0 mm 0.00 in0.0 mm
10:00 AM 28.9°F-1.7°C 25.8°F-3.4°C 88% 16.1 mph WSW25.9 kmh WSW 18.4 mph29.6 kmh 29.97 in1014.9 mb - 0.00 in0.0 mm 0.00 in0.0 mm
09:50 AM 28.8°F-1.8°C 25.7°F-3.5°C 88% 16.1 mph WSW25.9 kmh WSW 17.3 mph27.8 kmh 29.96 in1014.6 mb - 0.00 in0.0 mm 0.00 in0.0 mm
09:40 AM 28.6°F-1.9°C 25.5°F-3.6°C 88% 19.6 mph WSW31.5 kmh WSW 19.6 mph31.5 kmh 29.96 in1014.6 mb - 0.00 in0.0 mm 0.00 in0.0 mm
09:30 AM 28.4°F-2.0°C 25.3°F-3.7°C 88% 23.0 mph WSW37.0 kmh WSW 26.5 mph42.6 kmh 29.96 in1014.6 mb - 0.00 in0.0 mm 0.00 in0.0 mm
09:20 AM 28.4°F-2.0°C 25.6°F-3.6°C 89% 18.4 mph WSW29.6 kmh WSW 20.7 mph33.3 kmh 29.96 in1014.6 mb - 0.00 in0.0 mm 0.00 in0.0 mm
09:10 AM 28.3°F-2.1°C 25.2°F-3.8°C 88% 12.7 mph WSW20.4 kmh WSW 21.9 mph35.2 kmh 29.96 in1014.6 mb - 0.00 in0.0 mm 0.00 in0.0 mm
09:00 AM 28.2°F-2.1°C 25.4°F-3.7°C 89% 13.8 mph WSW22.2 kmh WSW 16.1 mph25.9 kmh 29.96 in1014.6 mb - 0.00 in0.0 mm 0.00 in0.0 mm
08:50 AM 28.1°F-2.2°C 25.3°F-3.7°C 89% Calm Calm -- 29.95 in1014.2 mb - 0.00 in0.0 mm 0.00 in0.0 mm
08:40 AM 28.0°F-2.2°C 25.2°F-3.8°C 89% 6.9 mph WSW11.1 kmh WSW 16.1 mph25.9 kmh 29.96 in1014.6 mb - 0.00 in0.0 mm 0.00 in0.0 mm
08:30 AM 27.9°F-2.3°C 25.1°F-3.8°C 89% 11.5 mph SW18.5 kmh SW 13.8 mph22.2 kmh 29.95 in1014.2 mb - 0.00 in0.0 mm 0.00 in0.0 mm
08:20 AM 27.9°F-2.3°C 25.1°F-3.8°C 89% Calm Calm -- 29.95 in1014.2 mb - 0.00 in0.0 mm 0.00 in0.0 mm
08:10 AM 27.7°F-2.4°C 25.2°F-3.8°C 90% 11.5 mph SW18.5 kmh SW 15.0 mph24.1 kmh 29.95 in1014.2 mb - 0.00 in0.0 mm 0.00 in0.0 mm
08:00 AM 27.5°F-2.5°C 25.2°F-3.8°C 91% 10.4 mph SW16.7 kmh SW 10.4 mph16.7 kmh 29.95 in1014.2 mb - 0.00 in0.0 mm 0.00 in0.0 mm
07:50 AM 27.2°F-2.7°C 25.2°F-3.8°C 92% 6.9 mph SW11.1 kmh SW 10.4 mph16.7 kmh 29.96 in1014.6 mb - 0.00 in0.0 mm 0.00 in0.0 mm
07:40 AM 27.0°F-2.8°C 25.2°F-3.8°C 93% 10.4 mph SW16.7 kmh SW 13.8 mph22.2 kmh 29.96 in1014.6 mb - 0.00 in0.0 mm 0.00 in0.0 mm
07:30 AM 26.8°F-2.9°C 25.3°F-3.7°C 94% 8.1 mph SW13.0 kmh SW 13.8 mph22.2 kmh 29.96 in1014.6 mb - 0.00 in0.0 mm 0.00 in0.0 mm
07:20 AM 26.7°F-2.9°C 25.2°F-3.8°C 94% Calm Calm -- 29.96 in1014.6 mb - 0.00 in0.0 mm 0.00 in0.0 mm
07:10 AM 26.6°F-3.0°C 25.1°F-3.8°C 94% Calm Calm -- 29.96 in1014.6 mb - 0.00 in0.0 mm 0.00 in0.0 mm
07:00 AM 26.4°F-3.1°C 24.9°F-3.9°C 94% Calm Calm 3.5 mph5.6 kmh 29.96 in1014.6 mb - 0.00 in0.0 mm 0.00 in0.0 mm
06:50 AM 26.4°F-3.1°C 24.7°F-4.1°C 93% Calm Calm -- 29.96 in1014.6 mb - 0.00 in0.0 mm 0.00 in0.0 mm
06:40 AM 26.3°F-3.2°C 24.6°F-4.1°C 93% Calm Calm -- 29.96 in1014.6 mb - 0.00 in0.0 mm 0.00 in0.0 mm
06:30 AM 26.3°F-3.2°C 24.3°F-4.3°C 92% 1.2 mph WSW1.9 kmh WSW 5.8 mph9.3 kmh 29.96 in1014.6 mb - 0.00 in0.0 mm 0.00 in0.0 mm
06:20 AM 26.3°F-3.2°C 24.0°F-4.4°C 91% Calm Calm -- 29.96 in1014.6 mb - 0.00 in0.0 mm 0.00 in0.0 mm
06:10 AM 26.2°F-3.2°C 24.0°F-4.4°C 91% Calm Calm -- 29.96 in1014.6 mb - 0.00 in0.0 mm 0.00 in0.0 mm
06:00 AM 26.2°F-3.2°C 23.7°F-4.6°C 90% Calm Calm -- 29.95 in1014.2 mb - 0.00 in0.0 mm 0.00 in0.0 mm
05:50 AM 26.2°F-3.2°C 23.6°F-4.7°C 90% Calm Calm -- 29.96 in1014.6 mb - 0.00 in0.0 mm 0.00 in0.0 mm
05:40 AM 26.1°F-3.3°C 23.6°F-4.7°C 90% Calm Calm -- 29.96 in1014.6 mb - 0.00 in0.0 mm 0.00 in0.0 mm
05:30 AM 26.1°F-3.3°C 23.3°F-4.8°C 89% 4.6 mph WSW7.4 kmh WSW 5.8 mph9.3 kmh 29.96 in1014.6 mb - 0.00 in0.0 mm 0.00 in0.0 mm
05:20 AM 26.2°F-3.2°C 23.2°F-4.9°C 88% Calm Calm -- 29.96 in1014.6 mb - 0.00 in0.0 mm 0.00 in0.0 mm
05:10 AM 26.3°F-3.2°C 23.2°F-4.9°C 88% Calm Calm -- 29.96 in1014.6 mb - 0.00 in0.0 mm 0.00 in0.0 mm
05:00 AM 26.2°F-3.2°C 22.9°F-5.1°C 87% Calm Calm -- 29.96 in1014.6 mb - 0.00 in0.0 mm 0.00 in0.0 mm
04:50 AM 26.2°F-3.2°C 22.9°F-5.1°C 87% Calm Calm -- 29.96 in1014.6 mb - 0.00 in0.0 mm 0.00 in0.0 mm
04:40 AM 26.2°F-3.2°C 22.6°F-5.2°C 86% Calm Calm -- 29.96 in1014.6 mb - 0.00 in0.0 mm 0.00 in0.0 mm
04:30 AM 26.1°F-3.3°C 22.2°F-5.4°C 85% Calm Calm -- 29.96 in1014.6 mb - 0.00 in0.0 mm 0.00 in0.0 mm
04:20 AM 26.1°F-3.3°C 22.2°F-5.4°C 85% Calm Calm -- 29.96 in1014.6 mb - 0.00 in0.0 mm 0.00 in0.0 mm
04:10 AM 26.0°F-3.3°C 22.1°F-5.5°C 85% Calm Calm -- 29.96 in1014.6 mb - 0.00 in0.0 mm 0.00 in0.0 mm
04:00 AM 25.9°F-3.4°C 21.7°F-5.7°C 84% Calm Calm -- 29.96 in1014.6 mb - 0.00 in0.0 mm 0.00 in0.0 mm
03:50 AM 26.0°F-3.3°C 21.8°F-5.7°C 84% Calm Calm -- 29.97 in1014.9 mb - 0.00 in0.0 mm 0.00 in0.0 mm
03:40 AM 26.1°F-3.3°C 21.9°F-5.6°C 84% 2.3 mph SW3.7 kmh SW 6.9 mph11.1 kmh 29.98 in1015.2 mb - 0.00 in0.0 mm 0.00 in0.0 mm
03:30 AM 26.0°F-3.3°C 21.8°F-5.7°C 84% 9.2 mph SW14.8 kmh SW 11.5 mph18.5 kmh 29.98 in1015.2 mb - 0.00 in0.0 mm 0.00 in0.0 mm
03:20 AM 26.0°F-3.3°C 21.5°F-5.8°C 83% 1.2 mph SW1.9 kmh SW -- 29.98 in1015.2 mb - 0.00 in0.0 mm 0.00 in0.0 mm
03:10 AM 25.8°F-3.4°C 21.3°F-5.9°C 83% Calm Calm -- 29.98 in1015.2 mb - 0.00 in0.0 mm 0.00 in0.0 mm
03:00 AM 25.6°F-3.6°C 21.1°F-6.1°C 83% Calm Calm -- 29.98 in1015.2 mb - 0.00 in0.0 mm 0.00 in0.0 mm
02:50 AM 25.3°F-3.7°C 20.6°F-6.3°C 82% Calm Calm -- 29.98 in1015.2 mb - 0.00 in0.0 mm 0.00 in0.0 mm
02:40 AM 25.3°F-3.7°C 20.6°F-6.3°C 82% Calm Calm -- 29.98 in1015.2 mb - 0.00 in0.0 mm 0.00 in0.0 mm
02:30 AM 25.6°F-3.6°C 20.6°F-6.3°C 81% Calm Calm -- 29.97 in1014.9 mb - 0.00 in0.0 mm 0.00 in0.0 mm
02:20 AM 25.6°F-3.6°C 20.9°F-6.2°C 82% Calm Calm -- 29.97 in1014.9 mb - 0.00 in0.0 mm 0.00 in0.0 mm
02:10 AM 25.7°F-3.5°C 21.0°F-6.1°C 82% Calm Calm -- 29.98 in1015.2 mb - 0.00 in0.0 mm 0.00 in0.0 mm
02:00 AM 26.0°F-3.3°C 21.3°F-5.9°C 82% Calm Calm -- 29.98 in1015.2 mb - 0.00 in0.0 mm 0.00 in0.0 mm
01:50 AM 25.9°F-3.4°C 21.2°F-6.0°C 82% Calm Calm -- 29.98 in1015.2 mb - 0.00 in0.0 mm 0.00 in0.0 mm
01:40 AM 25.8°F-3.4°C 21.3°F-5.9°C 83% Calm Calm -- 29.98 in1015.2 mb - 0.00 in0.0 mm 0.00 in0.0 mm
01:30 AM 25.9°F-3.4°C 21.4°F-5.9°C 83% Calm Calm -- 29.98 in1015.2 mb - 0.00 in0.0 mm 0.00 in0.0 mm
01:20 AM 26.0°F-3.3°C 21.5°F-5.8°C 83% Calm Calm -- 29.98 in1015.2 mb - 0.00 in0.0 mm 0.00 in0.0 mm
01:10 AM 26.2°F-3.2°C 21.7°F-5.7°C 83% 1.2 mph SSW1.9 kmh SSW -- 29.98 in1015.2 mb - 0.00 in0.0 mm 0.00 in0.0 mm
01:00 AM 26.3°F-3.2°C 22.1°F-5.5°C 84% Calm Calm -- 29.98 in1015.2 mb - 0.00 in0.0 mm 0.00 in0.0 mm
12:50 AM 26.6°F-3.0°C 22.4°F-5.3°C 84% Calm Calm -- 29.98 in1015.2 mb - 0.00 in0.0 mm 0.00 in0.0 mm
12:40 AM 26.9°F-2.8°C 22.7°F-5.2°C 84% Calm Calm -- 29.99 in1015.6 mb - 0.00 in0.0 mm 0.00 in0.0 mm
12:30 AM 27.2°F-2.7°C 23.3°F-4.8°C 85% Calm Calm -- 29.99 in1015.6 mb - 0.00 in0.0 mm 0.00 in0.0 mm
12:20 AM 27.6°F-2.4°C 23.7°F-4.6°C 85% Calm Calm -- 30.00 in1015.9 mb - 0.00 in0.0 mm 0.00 in0.0 mm
12:10 AM 27.7°F-2.4°C 24.1°F-4.4°C 86% Calm Calm -- 30.00 in1015.9 mb - 0.00 in0.0 mm 0.00 in0.0 mm
12:00 AM 27.7°F-2.4°C 24.1°F-4.4°C 86% 9.2 mph SSW14.8 kmh SSW 8.1 mph13.0 kmh 30.00 in1015.9 mb - 0.00 in0.0 mm 0.00 in0.0 mm